sensor_id;sensor_type;location;lat;lon;timestamp;temperature;humidity
23540;DHT22;11947;50.810;4.394;2022-07-29T00:00:58;19.90;97.40
23540;DHT22;11947;50.810;4.394;2022-07-29T00:03:24;20.00;97.40
23540;DHT22;11947;50.810;4.394;2022-07-29T00:05:50;20.00;97.40
23540;DHT22;11947;50.810;4.394;2022-07-29T00:08:18;20.20;97.20
23540;DHT22;11947;50.810;4.394;2022-07-29T00:10:44;20.00;97.60
23540;DHT22;11947;50.810;4.394;2022-07-29T00:13:11;19.80;97.50
23540;DHT22;11947;50.810;4.394;2022-07-29T00:15:37;19.80;97.60
23540;DHT22;11947;50.810;4.394;2022-07-29T00:18:03;19.70;97.90
23540;DHT22;11947;50.810;4.394;2022-07-29T00:20:29;19.70;98.00
23540;DHT22;11947;50.810;4.394;2022-07-29T00:22:54;19.70;97.90
23540;DHT22;11947;50.810;4.394;2022-07-29T00:25:20;19.60;98.20
23540;DHT22;11947;50.810;4.394;2022-07-29T00:27:46;19.50;98.40
23540;DHT22;11947;50.810;4.394;2022-07-29T00:30:12;19.50;98.40
23540;DHT22;11947;50.810;4.394;2022-07-29T00:32:38;19.40;98.60
23540;DHT22;11947;50.810;4.394;2022-07-29T00:35:04;19.40;98.70
23540;DHT22;11947;50.810;4.394;2022-07-29T00:37:48;19.30;98.90
23540;DHT22;11947;50.810;4.394;2022-07-29T00:40:14;19.30;98.80
23540;DHT22;11947;50.810;4.394;2022-07-29T00:42:48;19.30;99.00
23540;DHT22;11947;50.810;4.394;2022-07-29T00:45:15;19.40;98.80
23540;DHT22;11947;50.810;4.394;2022-07-29T00:47:41;19.30;98.90
23540;DHT22;11947;50.810;4.394;2022-07-29T00:50:09;19.30;99.10
23540;DHT22;11947;50.810;4.394;2022-07-29T00:52:36;19.10;99.40
23540;DHT22;11947;50.810;4.394;2022-07-29T00:55:04;19.10;99.30
23540;DHT22;11947;50.810;4.394;2022-07-29T00:57:30;18.90;99.60
23540;DHT22;11947;50.810;4.394;2022-07-29T00:59:56;18.90;99.90
23540;DHT22;11947;50.810;4.394;2022-07-29T01:02:21;18.80;99.90
23540;DHT22;11947;50.810;4.394;2022-07-29T01:04:47;18.80;99.90
23540;DHT22;11947;50.810;4.394;2022-07-29T01:07:13;18.90;99.90
23540;DHT22;11947;50.810;4.394;2022-07-29T01:09:39;18.80;99.90
23540;DHT22;11947;50.810;4.394;2022-07-29T01:12:06;18.80;99.90
23540;DHT22;11947;50.810;4.394;2022-07-29T01:14:32;18.70;99.90
23540;DHT22;11947;50.810;4.394;2022-07-29T01:17:02;18.70;99.90
23540;DHT22;11947;50.810;4.394;2022-07-29T01:22:27;18.70;99.90
23540;DHT22;11947;50.810;4.394;2022-07-29T01:25:09;18.60;99.90
23540;DHT22;11947;50.810;4.394;2022-07-29T01:28:21;18.60;99.90
23540;DHT22;11947;50.810;4.394;2022-07-29T01:30:27;18.60;99.90
23540;DHT22;11947;50.810;4.394;2022-07-29T01:33:00;18.60;99.90
23540;DHT22;11947;50.810;4.394;2022-07-29T01:35:48;18.50;99.90
23540;DHT22;11947;50.810;4.394;2022-07-29T01:38:21;18.50;99.90
23540;DHT22;11947;50.810;4.394;2022-07-29T01:41:01;18.50;99.90
23540;DHT22;11947;50.810;4.394;2022-07-29T01:43:35;18.50;99.90
23540;DHT22;11947;50.810;4.394;2022-07-29T01:46:05;18.40;99.90
23540;DHT22;11947;50.810;4.394;2022-07-29T01:49:00;18.30;99.90
23540;DHT22;11947;50.810;4.394;2022-07-29T01:51:35;18.40;99.90
23540;DHT22;11947;50.810;4.394;2022-07-29T01:57:14;18.20;99.90
23540;DHT22;11947;50.810;4.394;2022-07-29T01:59:40;18.10;99.90
23540;DHT22;11947;50.810;4.394;2022-07-29T02:02:08;18.20;99.90
23540;DHT22;11947;50.810;4.394;2022-07-29T02:04:37;18.10;99.90
23540;DHT22;11947;50.810;4.394;2022-07-29T02:07:06;18.10;99.90
23540;DHT22;11947;50.810;4.394;2022-07-29T02:09:35;18.10;99.90
23540;DHT22;11947;50.810;4.394;2022-07-29T02:12:03;18.00;99.90
23540;DHT22;11947;50.810;4.394;2022-07-29T02:14:34;18.00;99.90
23540;DHT22;11947;50.810;4.394;2022-07-29T02:17:02;18.00;99.90
23540;DHT22;11947;50.810;4.394;2022-07-29T02:19:31;18.00;99.90
23540;DHT22;11947;50.810;4.394;2022-07-29T02:21:58;17.90;99.90
23540;DHT22;11947;50.810;4.394;2022-07-29T02:24:26;17.70;99.90
23540;DHT22;11947;50.810;4.394;2022-07-29T02:26:54;17.80;99.90
23540;DHT22;11947;50.810;4.394;2022-07-29T02:29:23;17.80;99.90
23540;DHT22;11947;50.810;4.394;2022-07-29T02:31:52;17.80;99.90
23540;DHT22;11947;50.810;4.394;2022-07-29T02:34:20;17.80;99.90
23540;DHT22;11947;50.810;4.394;2022-07-29T02:36:49;17.90;99.90
23540;DHT22;11947;50.810;4.394;2022-07-29T02:39:16;17.80;99.90
23540;DHT22;11947;50.810;4.394;2022-07-29T02:41:47;17.70;99.90
23540;DHT22;11947;50.810;4.394;2022-07-29T02:44:20;17.70;99.90
23540;DHT22;11947;50.810;4.394;2022-07-29T02:50:13;17.60;99.90
23540;DHT22;11947;50.810;4.394;2022-07-29T02:52:57;17.50;99.90
23540;DHT22;11947;50.810;4.394;2022-07-29T02:55:33;17.50;99.90
23540;DHT22;11947;50.810;4.394;2022-07-29T02:58:01;17.50;99.90
23540;DHT22;11947;50.810;4.394;2022-07-29T03:00:29;17.40;99.90
23540;DHT22;11947;50.810;4.394;2022-07-29T03:02:58;17.40;99.90
23540;DHT22;11947;50.810;4.394;2022-07-29T03:05:25;17.40;99.90
23540;DHT22;11947;50.810;4.394;2022-07-29T03:07:55;17.40;99.90
23540;DHT22;11947;50.810;4.394;2022-07-29T03:10:26;17.50;99.90
23540;DHT22;11947;50.810;4.394;2022-07-29T03:12:51;17.50;99.90
23540;DHT22;11947;50.810;4.394;2022-07-29T03:15:18;17.50;99.90
23540;DHT22;11947;50.810;4.394;2022-07-29T03:17:44;17.40;99.90
23540;DHT22;11947;50.810;4.394;2022-07-29T03:20:11;17.50;99.90
23540;DHT22;11947;50.810;4.394;2022-07-29T03:22:42;17.40;99.90
23540;DHT22;11947;50.810;4.394;2022-07-29T03:25:15;17.40;99.90
23540;DHT22;11947;50.810;4.394;2022-07-29T03:27:42;17.20;99.90
23540;DHT22;11947;50.810;4.394;2022-07-29T03:30:09;17.30;99.90
23540;DHT22;11947;50.810;4.394;2022-07-29T03:32:35;17.30;99.90
23540;DHT22;11947;50.810;4.394;2022-07-29T03:35:01;17.30;99.90
23540;DHT22;11947;50.810;4.394;2022-07-29T03:37:27;17.40;99.90
23540;DHT22;11947;50.810;4.394;2022-07-29T03:39:55;17.30;99.90
23540;DHT22;11947;50.810;4.394;2022-07-29T03:42:24;17.20;99.90
23540;DHT22;11947;50.810;4.394;2022-07-29T03:44:51;17.20;99.90
23540;DHT22;11947;50.810;4.394;2022-07-29T03:47:22;17.20;99.90
23540;DHT22;11947;50.810;4.394;2022-07-29T03:49:50;17.20;99.90
23540;DHT22;11947;50.810;4.394;2022-07-29T03:52:17;17.10;99.90
23540;DHT22;11947;50.810;4.394;2022-07-29T03:54:43;17.00;99.90
23540;DHT22;11947;50.810;4.394;2022-07-29T03:57:10;17.10;99.90
23540;DHT22;11947;50.810;4.394;2022-07-29T03:59:37;17.10;99.90
23540;DHT22;11947;50.810;4.394;2022-07-29T04:02:04;17.10;99.90
23540;DHT22;11947;50.810;4.394;2022-07-29T04:04:33;17.10;99.90
23540;DHT22;11947;50.810;4.394;2022-07-29T04:07:00;17.10;99.90
23540;DHT22;11947;50.810;4.394;2022-07-29T04:09:26;17.10;99.90
23540;DHT22;11947;50.810;4.394;2022-07-29T04:11:52;17.20;99.90
23540;DHT22;11947;50.810;4.394;2022-07-29T04:14:18;17.00;99.90
23540;DHT22;11947;50.810;4.394;2022-07-29T04:16:44;17.00;99.90
23540;DHT22;11947;50.810;4.394;2022-07-29T04:19:09;16.90;99.90
23540;DHT22;11947;50.810;4.394;2022-07-29T04:21:39;16.90;99.90
23540;DHT22;11947;50.810;4.394;2022-07-29T04:24:06;16.90;99.90
23540;DHT22;11947;50.810;4.394;2022-07-29T04:26:32;16.90;99.90
23540;DHT22;11947;50.810;4.394;2022-07-29T04:28:58;16.90;99.90
23540;DHT22;11947;50.810;4.394;2022-07-29T04:31:23;16.90;99.90
23540;DHT22;11947;50.810;4.394;2022-07-29T04:33:49;16.90;99.90
23540;DHT22;11947;50.810;4.394;2022-07-29T04:36:15;16.90;99.90
23540;DHT22;11947;50.810;4.394;2022-07-29T04:38:40;16.90;99.90
23540;DHT22;11947;50.810;4.394;2022-07-29T04:41:06;16.90;99.90
23540;DHT22;11947;50.810;4.394;2022-07-29T04:43:33;16.90;99.90
23540;DHT22;11947;50.810;4.394;2022-07-29T04:45:59;16.90;99.90
23540;DHT22;11947;50.810;4.394;2022-07-29T04:48:25;16.90;99.90
23540;DHT22;11947;50.810;4.394;2022-07-29T04:50:51;17.00;99.90
23540;DHT22;11947;50.810;4.394;2022-07-29T04:53:17;16.90;99.90
23540;DHT22;11947;50.810;4.394;2022-07-29T04:55:43;17.00;99.90
23540;DHT22;11947;50.810;4.394;2022-07-29T04:58:10;17.00;99.90
23540;DHT22;11947;50.810;4.394;2022-07-29T05:00:36;17.20;99.90
23540;DHT22;11947;50.810;4.394;2022-07-29T05:03:01;17.10;99.90
23540;DHT22;11947;50.810;4.394;2022-07-29T05:05:27;17.10;99.90
23540;DHT22;11947;50.810;4.394;2022-07-29T05:07:53;17.10;99.90
23540;DHT22;11947;50.810;4.394;2022-07-29T05:10:18;17.10;99.90
23540;DHT22;11947;50.810;4.394;2022-07-29T05:12:44;17.10;99.90
23540;DHT22;11947;50.810;4.394;2022-07-29T05:15:10;17.20;99.90
23540;DHT22;11947;50.810;4.394;2022-07-29T05:17:35;17.30;99.90
23540;DHT22;11947;50.810;4.394;2022-07-29T05:20:01;17.30;99.90
23540;DHT22;11947;50.810;4.394;2022-07-29T05:22:27;17.30;99.90
23540;DHT22;11947;50.810;4.394;2022-07-29T05:24:52;17.40;99.90
23540;DHT22;11947;50.810;4.394;2022-07-29T05:27:18;17.50;99.90
23540;DHT22;11947;50.810;4.394;2022-07-29T05:29:43;17.50;99.90
23540;DHT22;11947;50.810;4.394;2022-07-29T05:32:09;17.60;99.90
23540;DHT22;11947;50.810;4.394;2022-07-29T05:34:35;17.70;99.90
23540;DHT22;11947;50.810;4.394;2022-07-29T05:37:00;17.80;99.90
23540;DHT22;11947;50.810;4.394;2022-07-29T05:39:26;17.80;99.90
23540;DHT22;11947;50.810;4.394;2022-07-29T05:41:52;17.90;99.90
23540;DHT22;11947;50.810;4.394;2022-07-29T05:44:17;17.90;99.90
23540;DHT22;11947;50.810;4.394;2022-07-29T05:46:43;17.80;99.90
23540;DHT22;11947;50.810;4.394;2022-07-29T05:49:08;17.90;99.90
23540;DHT22;11947;50.810;4.394;2022-07-29T05:51:34;17.90;99.90
23540;DHT22;11947;50.810;4.394;2022-07-29T05:54:01;17.80;99.90
23540;DHT22;11947;50.810;4.394;2022-07-29T05:56:27;17.70;99.90
23540;DHT22;11947;50.810;4.394;2022-07-29T05:58:52;17.80;99.90
23540;DHT22;11947;50.810;4.394;2022-07-29T06:01:18;17.80;99.90
23540;DHT22;11947;50.810;4.394;2022-07-29T06:03:44;18.00;99.90
23540;DHT22;11947;50.810;4.394;2022-07-29T06:06:10;18.20;99.90
23540;DHT22;11947;50.810;4.394;2022-07-29T06:08:35;18.30;99.90
23540;DHT22;11947;50.810;4.394;2022-07-29T06:11:03;18.40;99.90
23540;DHT22;11947;50.810;4.394;2022-07-29T06:13:29;18.60;99.90
23540;DHT22;11947;50.810;4.394;2022-07-29T06:15:55;18.80;99.90
23540;DHT22;11947;50.810;4.394;2022-07-29T06:18:21;19.00;99.90
23540;DHT22;11947;50.810;4.394;2022-07-29T06:20:49;19.30;99.90
23540;DHT22;11947;50.810;4.394;2022-07-29T06:23:15;19.50;99.90
23540;DHT22;11947;50.810;4.394;2022-07-29T06:25:41;19.80;99.90
23540;DHT22;11947;50.810;4.394;2022-07-29T06:28:06;20.10;99.90
23540;DHT22;11947;50.810;4.394;2022-07-29T06:30:32;20.40;99.90
23540;DHT22;11947;50.810;4.394;2022-07-29T06:32:58;20.50;99.90
23540;DHT22;11947;50.810;4.394;2022-07-29T06:35:23;20.50;99.90
23540;DHT22;11947;50.810;4.394;2022-07-29T06:37:49;20.70;99.90
23540;DHT22;11947;50.810;4.394;2022-07-29T06:40:14;20.90;99.90
23540;DHT22;11947;50.810;4.394;2022-07-29T06:43:00;21.30;99.90
23540;DHT22;11947;50.810;4.394;2022-07-29T06:45:25;21.60;99.90
23540;DHT22;11947;50.810;4.394;2022-07-29T06:47:52;21.70;99.90
23540;DHT22;11947;50.810;4.394;2022-07-29T06:50:17;21.80;99.90
23540;DHT22;11947;50.810;4.394;2022-07-29T06:52:43;21.90;99.90
23540;DHT22;11947;50.810;4.394;2022-07-29T06:55:09;22.00;99.90
23540;DHT22;11947;50.810;4.394;2022-07-29T06:57:34;22.10;99.90
23540;DHT22;11947;50.810;4.394;2022-07-29T07:00:01;22.20;99.90
23540;DHT22;11947;50.810;4.394;2022-07-29T07:02:26;22.20;99.90
23540;DHT22;11947;50.810;4.394;2022-07-29T07:04:52;22.30;99.90
23540;DHT22;11947;50.810;4.394;2022-07-29T07:07:17;22.70;99.90
23540;DHT22;11947;50.810;4.394;2022-07-29T07:09:43;23.10;99.90
23540;DHT22;11947;50.810;4.394;2022-07-29T07:12:09;23.30;99.90
23540;DHT22;11947;50.810;4.394;2022-07-29T07:14:35;23.50;99.90
23540;DHT22;11947;50.810;4.394;2022-07-29T07:17:00;23.50;99.90
23540;DHT22;11947;50.810;4.394;2022-07-29T07:19:28;23.60;99.90
23540;DHT22;11947;50.810;4.394;2022-07-29T07:21:54;23.50;99.90
23540;DHT22;11947;50.810;4.394;2022-07-29T07:24:19;23.40;99.90
23540;DHT22;11947;50.810;4.394;2022-07-29T07:26:45;23.40;99.90
23540;DHT22;11947;50.810;4.394;2022-07-29T07:29:11;23.30;99.90
23540;DHT22;11947;50.810;4.394;2022-07-29T07:31:37;23.20;99.90
23540;DHT22;11947;50.810;4.394;2022-07-29T07:34:03;23.00;99.90
23540;DHT22;11947;50.810;4.394;2022-07-29T07:36:29;22.90;99.90
23540;DHT22;11947;50.810;4.394;2022-07-29T07:38:54;22.80;99.90
23540;DHT22;11947;50.810;4.394;2022-07-29T07:41:20;22.70;99.90
23540;DHT22;11947;50.810;4.394;2022-07-29T07:43:46;22.60;99.90
23540;DHT22;11947;50.810;4.394;2022-07-29T07:46:12;22.60;99.90
23540;DHT22;11947;50.810;4.394;2022-07-29T07:48:37;22.40;99.90
23540;DHT22;11947;50.810;4.394;2022-07-29T07:51:03;22.30;99.90
23540;DHT22;11947;50.810;4.394;2022-07-29T07:53:29;22.20;99.90
23540;DHT22;11947;50.810;4.394;2022-07-29T07:55:55;22.40;99.90
23540;DHT22;11947;50.810;4.394;2022-07-29T07:58:20;22.80;99.90
23540;DHT22;11947;50.810;4.394;2022-07-29T08:00:46;23.00;99.90
23540;DHT22;11947;50.810;4.394;2022-07-29T08:03:12;23.10;99.90
23540;DHT22;11947;50.810;4.394;2022-07-29T08:05:39;23.30;99.90
23540;DHT22;11947;50.810;4.394;2022-07-29T08:08:06;23.30;99.90
23540;DHT22;11947;50.810;4.394;2022-07-29T08:10:32;23.40;99.90
23540;DHT22;11947;50.810;4.394;2022-07-29T08:13:17;23.40;99.90
23540;DHT22;11947;50.810;4.394;2022-07-29T08:15:43;23.60;99.90
23540;DHT22;11947;50.810;4.394;2022-07-29T08:18:11;23.80;99.90
23540;DHT22;11947;50.810;4.394;2022-07-29T08:20:37;24.00;99.90
23540;DHT22;11947;50.810;4.394;2022-07-29T08:23:06;24.10;99.90
23540;DHT22;11947;50.810;4.394;2022-07-29T08:25:35;24.40;99.90
23540;DHT22;11947;50.810;4.394;2022-07-29T08:28:01;24.70;99.70
23540;DHT22;11947;50.810;4.394;2022-07-29T08:30:26;24.70;99.50
23540;DHT22;11947;50.810;4.394;2022-07-29T08:32:52;24.90;99.50
23540;DHT22;11947;50.810;4.394;2022-07-29T08:35:19;25.10;99.90
23540;DHT22;11947;50.810;4.394;2022-07-29T08:37:45;25.20;98.60
23540;DHT22;11947;50.810;4.394;2022-07-29T08:40:11;25.30;98.20
23540;DHT22;11947;50.810;4.394;2022-07-29T08:42:36;25.40;98.30
23540;DHT22;11947;50.810;4.394;2022-07-29T08:45:03;25.50;97.40
23540;DHT22;11947;50.810;4.394;2022-07-29T08:47:29;25.60;97.30
23540;DHT22;11947;50.810;4.394;2022-07-29T08:49:55;25.40;96.90
23540;DHT22;11947;50.810;4.394;2022-07-29T08:52:22;25.30;97.90
23540;DHT22;11947;50.810;4.394;2022-07-29T08:54:52;25.30;98.10
23540;DHT22;11947;50.810;4.394;2022-07-29T08:57:19;25.50;97.50
23540;DHT22;11947;50.810;4.394;2022-07-29T08:59:46;25.50;96.40
23540;DHT22;11947;50.810;4.394;2022-07-29T09:02:21;25.70;96.60
23540;DHT22;11947;50.810;4.394;2022-07-29T09:04:47;25.80;95.60
23540;DHT22;11947;50.810;4.394;2022-07-29T09:07:18;25.70;95.40
23540;DHT22;11947;50.810;4.394;2022-07-29T09:09:44;25.70;95.90
23540;DHT22;11947;50.810;4.394;2022-07-29T09:12:10;25.70;95.60
23540;DHT22;11947;50.810;4.394;2022-07-29T09:14:39;25.90;97.10
23540;DHT22;11947;50.810;4.394;2022-07-29T09:17:06;26.10;97.10
23540;DHT22;11947;50.810;4.394;2022-07-29T09:19:37;26.30;96.40
23540;DHT22;11947;50.810;4.394;2022-07-29T09:22:06;26.60;95.00
23540;DHT22;11947;50.810;4.394;2022-07-29T09:24:46;26.60;93.70
23540;DHT22;11947;50.810;4.394;2022-07-29T09:27:24;26.60;95.40
23540;DHT22;11947;50.810;4.394;2022-07-29T09:30:08;26.90;94.90
23540;DHT22;11947;50.810;4.394;2022-07-29T09:32:58;27.20;93.80
23540;DHT22;11947;50.810;4.394;2022-07-29T09:35:27;27.60;94.00
23540;DHT22;11947;50.810;4.394;2022-07-29T09:37:53;27.80;91.60
23540;DHT22;11947;50.810;4.394;2022-07-29T09:40:22;27.60;92.00
23540;DHT22;11947;50.810;4.394;2022-07-29T09:42:48;27.60;92.70
23540;DHT22;11947;50.810;4.394;2022-07-29T09:45:27;27.80;91.40
23540;DHT22;11947;50.810;4.394;2022-07-29T09:47:53;27.90;91.20
23540;DHT22;11947;50.810;4.394;2022-07-29T09:50:21;28.20;92.40
23540;DHT22;11947;50.810;4.394;2022-07-29T09:52:53;28.60;90.90
23540;DHT22;11947;50.810;4.394;2022-07-29T09:55:19;29.00;89.80
23540;DHT22;11947;50.810;4.394;2022-07-29T09:57:46;29.50;90.10
23540;DHT22;11947;50.810;4.394;2022-07-29T10:00:18;29.90;85.80
23540;DHT22;11947;50.810;4.394;2022-07-29T10:02:45;30.50;86.20
23540;DHT22;11947;50.810;4.394;2022-07-29T10:05:24;30.80;83.10
23540;DHT22;11947;50.810;4.394;2022-07-29T10:07:53;30.80;84.10
23540;DHT22;11947;50.810;4.394;2022-07-29T10:12:55;32.20;80.70
23540;DHT22;11947;50.810;4.394;2022-07-29T10:15:23;32.60;80.10
23540;DHT22;11947;50.810;4.394;2022-07-29T10:17:50;33.50;78.80
23540;DHT22;11947;50.810;4.394;2022-07-29T10:20:16;34.10;74.00
23540;DHT22;11947;50.810;4.394;2022-07-29T10:22:42;34.80;72.90
23540;DHT22;11947;50.810;4.394;2022-07-29T10:25:10;34.90;72.80
23540;DHT22;11947;50.810;4.394;2022-07-29T10:27:36;34.70;72.90
23540;DHT22;11947;50.810;4.394;2022-07-29T10:30:03;34.80;71.50
23540;DHT22;11947;50.810;4.394;2022-07-29T10:40:45;36.90;66.30
23540;DHT22;11947;50.810;4.394;2022-07-29T10:43:33;38.60;66.30
23540;DHT22;11947;50.810;4.394;2022-07-29T10:46:02;39.80;61.30
23540;DHT22;11947;50.810;4.394;2022-07-29T10:48:28;40.60;57.90
23540;DHT22;11947;50.810;4.394;2022-07-29T10:51:01;40.70;56.60
23540;DHT22;11947;50.810;4.394;2022-07-29T10:53:49;41.10;56.60
23540;DHT22;11947;50.810;4.394;2022-07-29T11:01:52;42.10;54.20
23540;DHT22;11947;50.810;4.394;2022-07-29T11:07:09;44.00;50.80
23540;DHT22;11947;50.810;4.394;2022-07-29T11:09:35;44.80;52.00
23540;DHT22;11947;50.810;4.394;2022-07-29T11:12:01;45.70;48.00
23540;DHT22;11947;50.810;4.394;2022-07-29T11:17:17;45.50;46.60
23540;DHT22;11947;50.810;4.394;2022-07-29T11:19:43;45.50;48.60
23540;DHT22;11947;50.810;4.394;2022-07-29T11:22:10;46.50;48.00
23540;DHT22;11947;50.810;4.394;2022-07-29T11:24:37;47.40;46.70
23540;DHT22;11947;50.810;4.394;2022-07-29T11:27:21;48.30;45.30
23540;DHT22;11947;50.810;4.394;2022-07-29T11:29:58;48.00;44.20
23540;DHT22;11947;50.810;4.394;2022-07-29T11:32:49;48.00;43.80
23540;DHT22;11947;50.810;4.394;2022-07-29T11:35:16;48.90;44.50
23540;DHT22;11947;50.810;4.394;2022-07-29T11:37:43;48.50;42.50
23540;DHT22;11947;50.810;4.394;2022-07-29T11:40:11;48.10;43.70
23540;DHT22;11947;50.810;4.394;2022-07-29T11:42:38;48.60;43.90
23540;DHT22;11947;50.810;4.394;2022-07-29T11:50:28;44.50;45.20
23540;DHT22;11947;50.810;4.394;2022-07-29T11:52:55;43.80;45.30
23540;DHT22;11947;50.810;4.394;2022-07-29T11:55:22;43.50;47.00
23540;DHT22;11947;50.810;4.394;2022-07-29T12:00:30;41.20;47.50
23540;DHT22;11947;50.810;4.394;2022-07-29T12:02:57;39.90;49.20
23540;DHT22;11947;50.810;4.394;2022-07-29T12:05:32;39.80;50.90
23540;DHT22;11947;50.810;4.394;2022-07-29T12:08:06;40.30;50.90
23540;DHT22;11947;50.810;4.394;2022-07-29T12:10:32;41.40;50.30
23540;DHT22;11947;50.810;4.394;2022-07-29T12:12:58;43.50;47.40
23540;DHT22;11947;50.810;4.394;2022-07-29T12:15:24;46.00;46.70
23540;DHT22;11947;50.810;4.394;2022-07-29T12:17:50;47.30;43.90
23540;DHT22;11947;50.810;4.394;2022-07-29T12:20:28;47.60;43.00
23540;DHT22;11947;50.810;4.394;2022-07-29T12:22:54;49.10;43.90
23540;DHT22;11947;50.810;4.394;2022-07-29T12:25:24;49.90;41.10
23540;DHT22;11947;50.810;4.394;2022-07-29T12:28:02;49.30;41.20
23540;DHT22;11947;50.810;4.394;2022-07-29T12:30:39;49.20;41.50
23540;DHT22;11947;50.810;4.394;2022-07-29T12:35:44;49.00;41.50
23540;DHT22;11947;50.810;4.394;2022-07-29T12:38:13;49.20;41.00
23540;DHT22;11947;50.810;4.394;2022-07-29T12:40:39;51.00;40.30
23540;DHT22;11947;50.810;4.394;2022-07-29T12:43:07;52.10;38.90
23540;DHT22;11947;50.810;4.394;2022-07-29T12:45:33;52.70;37.40
23540;DHT22;11947;50.810;4.394;2022-07-29T12:47:59;53.00;36.50
23540;DHT22;11947;50.810;4.394;2022-07-29T12:50:25;51.90;36.60
23540;DHT22;11947;50.810;4.394;2022-07-29T12:52:51;50.70;37.60
23540;DHT22;11947;50.810;4.394;2022-07-29T12:55:38;48.70;39.10
23540;DHT22;11947;50.810;4.394;2022-07-29T12:58:04;45.80;40.20
23540;DHT22;11947;50.810;4.394;2022-07-29T13:00:29;43.20;42.60
23540;DHT22;11947;50.810;4.394;2022-07-29T13:03:00;41.20;45.40
23540;DHT22;11947;50.810;4.394;2022-07-29T13:05:44;39.30;48.10
23540;DHT22;11947;50.810;4.394;2022-07-29T13:08:14;38.20;49.60
23540;DHT22;11947;50.810;4.394;2022-07-29T13:10:41;39.10;48.60
23540;DHT22;11947;50.810;4.394;2022-07-29T13:13:09;41.20;47.70
23540;DHT22;11947;50.810;4.394;2022-07-29T13:15:42;42.60;47.10
23540;DHT22;11947;50.810;4.394;2022-07-29T13:18:27;42.10;46.40
23540;DHT22;11947;50.810;4.394;2022-07-29T13:20:53;40.50;46.40
23540;DHT22;11947;50.810;4.394;2022-07-29T13:23:19;38.90;48.20
23540;DHT22;11947;50.810;4.394;2022-07-29T13:25:45;37.40;50.20
23540;DHT22;11947;50.810;4.394;2022-07-29T13:28:10;36.40;51.20
23540;DHT22;11947;50.810;4.394;2022-07-29T13:30:37;35.90;51.90
23540;DHT22;11947;50.810;4.394;2022-07-29T13:33:03;35.90;52.70
23540;DHT22;11947;50.810;4.394;2022-07-29T13:35:28;36.30;51.40
23540;DHT22;11947;50.810;4.394;2022-07-29T13:37:55;36.10;51.90
23540;DHT22;11947;50.810;4.394;2022-07-29T13:40:20;35.60;52.60
23540;DHT22;11947;50.810;4.394;2022-07-29T13:42:46;36.10;54.30
23540;DHT22;11947;50.810;4.394;2022-07-29T13:45:13;38.10;52.80
23540;DHT22;11947;50.810;4.394;2022-07-29T13:47:39;40.70;48.40
23540;DHT22;11947;50.810;4.394;2022-07-29T13:50:05;42.60;46.70
23540;DHT22;11947;50.810;4.394;2022-07-29T13:52:33;44.10;45.10
23540;DHT22;11947;50.810;4.394;2022-07-29T13:54:59;45.70;43.50
23540;DHT22;11947;50.810;4.394;2022-07-29T13:57:24;47.20;41.80
23540;DHT22;11947;50.810;4.394;2022-07-29T13:59:50;48.10;41.10
23540;DHT22;11947;50.810;4.394;2022-07-29T14:02:16;48.50;41.40
23540;DHT22;11947;50.810;4.394;2022-07-29T14:04:42;49.00;40.40
23540;DHT22;11947;50.810;4.394;2022-07-29T14:07:07;49.10;39.80
23540;DHT22;11947;50.810;4.394;2022-07-29T14:09:33;49.20;38.70
23540;DHT22;11947;50.810;4.394;2022-07-29T14:11:59;49.30;38.80
23540;DHT22;11947;50.810;4.394;2022-07-29T14:14:24;49.50;38.40
23540;DHT22;11947;50.810;4.394;2022-07-29T14:16:50;49.30;38.90
23540;DHT22;11947;50.810;4.394;2022-07-29T14:19:16;49.10;38.60
23540;DHT22;11947;50.810;4.394;2022-07-29T14:21:41;49.20;38.20
23540;DHT22;11947;50.810;4.394;2022-07-29T14:24:07;49.30;38.10
23540;DHT22;11947;50.810;4.394;2022-07-29T14:26:33;48.30;39.40
23540;DHT22;11947;50.810;4.394;2022-07-29T14:28:58;47.00;39.60
23540;DHT22;11947;50.810;4.394;2022-07-29T14:31:24;45.50;41.70
23540;DHT22;11947;50.810;4.394;2022-07-29T14:33:50;44.00;41.40
23540;DHT22;11947;50.810;4.394;2022-07-29T14:36:15;42.30;43.30
23540;DHT22;11947;50.810;4.394;2022-07-29T14:38:41;40.90;43.20
23540;DHT22;11947;50.810;4.394;2022-07-29T14:41:07;39.60;46.20
23540;DHT22;11947;50.810;4.394;2022-07-29T14:43:36;38.30;46.10
23540;DHT22;11947;50.810;4.394;2022-07-29T14:46:02;37.20;46.50
23540;DHT22;11947;50.810;4.394;2022-07-29T14:48:27;36.30;48.50
23540;DHT22;11947;50.810;4.394;2022-07-29T14:50:53;35.30;52.20
23540;DHT22;11947;50.810;4.394;2022-07-29T14:53:22;34.80;52.30
23540;DHT22;11947;50.810;4.394;2022-07-29T14:55:48;34.30;52.70
23540;DHT22;11947;50.810;4.394;2022-07-29T14:58:14;34.00;54.10
23540;DHT22;11947;50.810;4.394;2022-07-29T15:00:40;33.70;54.10
23540;DHT22;11947;50.810;4.394;2022-07-29T15:03:06;33.20;56.00
23540;DHT22;11947;50.810;4.394;2022-07-29T15:05:34;32.80;55.50
23540;DHT22;11947;50.810;4.394;2022-07-29T15:08:00;32.50;55.20
23540;DHT22;11947;50.810;4.394;2022-07-29T15:10:26;32.30;56.60
23540;DHT22;11947;50.810;4.394;2022-07-29T15:12:52;32.00;57.00
23540;DHT22;11947;50.810;4.394;2022-07-29T15:15:18;32.00;57.00
23540;DHT22;11947;50.810;4.394;2022-07-29T15:17:44;31.50;58.40
23540;DHT22;11947;50.810;4.394;2022-07-29T15:20:10;31.40;58.40
23540;DHT22;11947;50.810;4.394;2022-07-29T15:22:37;31.20;58.80
23540;DHT22;11947;50.810;4.394;2022-07-29T15:25:04;31.10;58.20
23540;DHT22;11947;50.810;4.394;2022-07-29T15:27:29;31.00;59.20
23540;DHT22;11947;50.810;4.394;2022-07-29T15:29:56;30.60;58.40
23540;DHT22;11947;50.810;4.394;2022-07-29T15:32:21;30.30;60.10
23540;DHT22;11947;50.810;4.394;2022-07-29T15:34:51;29.90;60.50
23540;DHT22;11947;50.810;4.394;2022-07-29T15:37:16;29.80;60.00
23540;DHT22;11947;50.810;4.394;2022-07-29T15:39:42;29.60;60.90
23540;DHT22;11947;50.810;4.394;2022-07-29T15:42:08;29.30;62.20
23540;DHT22;11947;50.810;4.394;2022-07-29T15:44:33;29.00;62.70
23540;DHT22;11947;50.810;4.394;2022-07-29T15:46:59;28.90;63.70
23540;DHT22;11947;50.810;4.394;2022-07-29T15:49:28;28.90;65.30
23540;DHT22;11947;50.810;4.394;2022-07-29T15:52:01;29.00;63.20
23540;DHT22;11947;50.810;4.394;2022-07-29T15:54:29;29.00;63.80
23540;DHT22;11947;50.810;4.394;2022-07-29T15:56:54;28.80;65.20
23540;DHT22;11947;50.810;4.394;2022-07-29T15:59:21;28.60;65.30
23540;DHT22;11947;50.810;4.394;2022-07-29T16:01:47;28.60;63.70
23540;DHT22;11947;50.810;4.394;2022-07-29T16:04:13;28.60;65.50
23540;DHT22;11947;50.810;4.394;2022-07-29T16:06:39;28.50;65.60
23540;DHT22;11947;50.810;4.394;2022-07-29T16:09:05;28.40;67.00
23540;DHT22;11947;50.810;4.394;2022-07-29T16:11:30;28.20;66.20
23540;DHT22;11947;50.810;4.394;2022-07-29T16:13:57;28.10;69.00
23540;DHT22;11947;50.810;4.394;2022-07-29T16:16:23;28.20;66.20